Terminal Aerodrome Forecast
Issued by NWS

Home | Current Version | Previous Version | Text Only | Print | Product List | Glossary On
Versions: 1 2 3 4 5 6 7 8 9 10 11 12 13 14 15
000
FTUS43 KIND 062320
TAFLAF
TAF
KLAF 062320Z 0700/0724 24006KT P6SM SCT120
     FM070600 25006KT P6SM SKC WS020/30030KT
     FM070900 26006KT P6SM SKC WS020/30040KT
     FM071300 27009KT P6SM SCT250
     FM071600 29013G21KT P6SM VCTS SCT050CB BKN100
     FM072100 30013KT P6SM BKN050
      AMD LTD TO CLD WIND AND VIS 0702/0713=

USA.gov is the U.S. government's official web portal to all federal, state and local government web resources and services.